createdAt,value
2016-09-19T00:00:19.401Z,0
2016-09-19T00:01:19.362Z,0
2016-09-19T00:02:19.412Z,0
2016-09-19T00:03:19.392Z,0
2016-09-19T00:04:19.413Z,0
2016-09-19T00:05:19.374Z,0
2016-09-19T00:06:19.392Z,0
2016-09-19T00:07:19.372Z,0
2016-09-19T00:08:19.394Z,0
2016-09-19T00:09:19.398Z,0
2016-09-19T00:10:19.419Z,0
2016-09-19T00:11:19.407Z,0
2016-09-19T00:12:19.402Z,0
2016-09-19T00:13:19.410Z,0
2016-09-19T00:14:19.431Z,0
2016-09-19T00:15:19.413Z,0
2016-09-19T00:16:19.405Z,0
2016-09-19T00:17:19.443Z,0
2016-09-19T00:18:19.465Z,0
2016-09-19T00:19:19.424Z,0
2016-09-19T00:20:19.432Z,0
2016-09-19T00:21:19.466Z,0
2016-09-19T00:22:19.431Z,0
2016-09-19T00:23:19.395Z,0
2016-09-19T00:24:19.430Z,0
2016-09-19T00:25:19.392Z,0
2016-09-19T00:26:19.439Z,0
2016-09-19T00:27:19.405Z,0
2016-09-19T00:28:19.439Z,0
2016-09-19T00:29:19.416Z,0
2016-09-19T00:30:19.470Z,0
2016-09-19T00:31:19.446Z,0
2016-09-19T00:32:19.438Z,0
2016-09-19T00:33:19.462Z,0
2016-09-19T00:34:19.412Z,0
2016-09-19T00:35:19.468Z,0
2016-09-19T00:36:19.492Z,0
2016-09-19T00:37:19.457Z,0
2016-09-19T00:38:19.561Z,0
2016-09-19T00:39:19.423Z,0
2016-09-19T00:40:19.460Z,0
2016-09-19T00:41:19.591Z,0
2016-09-19T00:42:19.572Z,0
2016-09-19T00:43:19.532Z,0
2016-09-19T00:44:19.577Z,0
2016-09-19T00:45:19.596Z,0
2016-09-19T00:46:19.533Z,0
2016-09-19T00:47:19.529Z,0
2016-09-19T00:48:19.459Z,0
2016-09-19T00:49:19.456Z,0
2016-09-19T00:50:19.447Z,0
2016-09-19T00:51:19.451Z,0
2016-09-19T00:52:19.434Z,0
2016-09-19T00:53:19.440Z,0
2016-09-19T00:54:19.441Z,0
2016-09-19T00:55:19.463Z,0
2016-09-19T00:56:19.571Z,0
2016-09-19T00:57:19.458Z,0
2016-09-19T00:58:19.449Z,0
2016-09-19T00:59:19.439Z,0
2016-09-19T01:00:19.462Z,0
2016-09-19T01:01:19.505Z,0
2016-09-19T01:02:19.449Z,0
2016-09-19T01:03:19.469Z,0
2016-09-19T01:04:19.475Z,0
2016-09-19T01:05:19.484Z,0
2016-09-19T01:06:19.472Z,0
2016-09-19T01:07:19.473Z,0
2016-09-19T01:08:19.495Z,0
2016-09-19T01:09:19.511Z,0
2016-09-19T01:10:19.477Z,0
2016-09-19T01:11:19.508Z,0
2016-09-19T01:12:19.448Z,0
2016-09-19T01:13:19.463Z,0
2016-09-19T01:14:19.461Z,0
2016-09-19T01:15:19.515Z,0
2016-09-19T01:16:19.506Z,0
2016-09-19T01:17:19.462Z,0
2016-09-19T01:18:19.501Z,0
2016-09-19T01:19:19.501Z,0
2016-09-19T01:20:19.466Z,0
2016-09-19T01:21:19.465Z,0
2016-09-19T01:22:19.508Z,0
2016-09-19T01:23:19.513Z,0
2016-09-19T01:24:19.521Z,0
2016-09-19T01:25:19.511Z,0
2016-09-19T01:26:19.498Z,0
2016-09-19T01:27:19.511Z,0
2016-09-19T01:28:19.488Z,0
2016-09-19T01:29:19.473Z,0
2016-09-19T01:30:19.541Z,0
2016-09-19T01:31:19.471Z,0
2016-09-19T01:32:19.449Z,0
2016-09-19T01:33:19.455Z,0
2016-09-19T01:34:19.479Z,0
2016-09-19T01:35:19.475Z,0
2016-09-19T01:36:19.488Z,0
2016-09-19T01:37:19.539Z,0
2016-09-19T01:38:19.474Z,0
2016-09-19T01:39:19.597Z,0
2016-09-19T01:40:19.472Z,0
2016-09-19T01:41:19.480Z,0
2016-09-19T01:42:19.488Z,0
2016-09-19T01:43:19.551Z,0
2016-09-19T01:44:19.510Z,0
2016-09-19T01:45:19.482Z,0
2016-09-19T01:46:19.469Z,0
2016-09-19T01:47:19.490Z,0
2016-09-19T01:48:19.501Z,0
2016-09-19T01:49:19.483Z,0
2016-09-19T01:50:19.494Z,0
2016-09-19T01:51:19.530Z,0
2016-09-19T01:52:19.481Z,0
2016-09-19T01:53:19.511Z,0
2016-09-19T01:54:19.476Z,0
2016-09-19T01:55:19.483Z,0
2016-09-19T01:56:19.532Z,0
2016-09-19T01:57:19.540Z,0
2016-09-19T01:58:19.520Z,0
2016-09-19T01:59:19.498Z,0
2016-09-19T02:00:19.533Z,0
2016-09-19T02:01:19.552Z,0
2016-09-19T02:02:19.518Z,0
2016-09-19T02:03:19.496Z,0
2016-09-19T02:04:19.530Z,0
2016-09-19T02:05:19.532Z,0
2016-09-19T02:06:19.498Z,0
2016-09-19T02:07:19.533Z,0
2016-09-19T02:08:19.551Z,0
2016-09-19T02:09:19.536Z,0
2016-09-19T02:10:19.544Z,0
2016-09-19T02:11:19.530Z,0
2016-09-19T02:12:19.492Z,0
2016-09-19T02:13:19.532Z,0
2016-09-19T02:14:19.517Z,0
2016-09-19T02:15:19.540Z,0
2016-09-19T02:16:19.521Z,0
2016-09-19T02:17:19.507Z,0
2016-09-19T02:18:19.504Z,0
2016-09-19T02:19:19.556Z,0
2016-09-19T02:20:19.569Z,0
2016-09-19T02:21:19.526Z,0
2016-09-19T02:22:19.518Z,0
2016-09-19T02:23:19.536Z,0
2016-09-19T02:24:19.528Z,0
2016-09-19T02:25:19.506Z,0
2016-09-19T02:26:19.510Z,0
2016-09-19T02:27:19.528Z,0
2016-09-19T02:28:19.562Z,0
2016-09-19T02:29:19.558Z,0
2016-09-19T02:30:19.541Z,0
2016-09-19T02:31:19.564Z,0
2016-09-19T02:32:19.524Z,0
2016-09-19T02:33:19.531Z,0
2016-09-19T02:34:19.524Z,0
2016-09-19T02:35:19.531Z,0
2016-09-19T02:36:19.529Z,0
2016-09-19T02:37:19.576Z,0
2016-09-19T02:38:19.576Z,0
2016-09-19T02:39:19.532Z,0
2016-09-19T02:40:19.571Z,0
2016-09-19T02:41:19.538Z,0
2016-09-19T02:42:19.537Z,0
2016-09-19T02:43:19.548Z,0
2016-09-19T02:44:19.515Z,0
2016-09-19T02:45:19.529Z,0
2016-09-19T02:46:19.503Z,0
2016-09-19T02:47:19.536Z,0
2016-09-19T02:48:19.548Z,0
2016-09-19T02:49:19.533Z,0
2016-09-19T02:50:19.519Z,0
2016-09-19T02:51:19.539Z,0
2016-09-19T02:52:19.576Z,0
2016-09-19T02:53:19.504Z,0
2016-09-19T02:54:19.529Z,0
2016-09-19T02:55:19.537Z,0
2016-09-19T02:56:19.593Z,0
2016-09-19T02:57:19.544Z,0
2016-09-19T02:58:19.542Z,0
2016-09-19T02:59:19.558Z,0
2016-09-19T03:00:19.533Z,0
2016-09-19T03:01:19.564Z,0
2016-09-19T03:02:19.560Z,0
2016-09-19T03:03:19.567Z,0
2016-09-19T03:04:19.536Z,0
2016-09-19T03:05:19.542Z,0
2016-09-19T03:06:19.532Z,0
2016-09-19T03:07:19.557Z,0
2016-09-19T03:08:19.555Z,0
2016-09-19T03:09:19.511Z,0
2016-09-19T03:10:19.539Z,0
2016-09-19T03:11:19.587Z,0
2016-09-19T03:12:19.544Z,0
2016-09-19T03:13:19.544Z,0
2016-09-19T03:14:19.571Z,0
2016-09-19T03:15:19.538Z,0
2016-09-19T03:16:19.569Z,0
2016-09-19T03:17:19.557Z,0
2016-09-19T03:18:19.583Z,0
2016-09-19T03:19:19.580Z,0
2016-09-19T03:20:19.554Z,0
2016-09-19T03:21:19.556Z,0
2016-09-19T03:22:19.551Z,0
2016-09-19T03:23:19.576Z,0
2016-09-19T03:24:19.537Z,0
2016-09-19T03:25:19.589Z,0
2016-09-19T03:26:19.581Z,0
2016-09-19T03:27:19.599Z,0
2016-09-19T03:28:19.623Z,0
2016-09-19T03:29:19.641Z,0
2016-09-19T03:30:19.609Z,0
2016-09-19T03:31:19.597Z,0
2016-09-19T03:32:19.567Z,0
2016-09-19T03:33:19.572Z,0
2016-09-19T03:34:19.587Z,0
2016-09-19T03:35:19.547Z,0
2016-09-19T03:36:19.614Z,0
2016-09-19T03:37:19.604Z,0
2016-09-19T03:38:19.591Z,0
2016-09-19T03:39:19.620Z,0
2016-09-19T03:40:19.619Z,0
2016-09-19T03:41:19.589Z,0
2016-09-19T03:42:19.567Z,0
2016-09-19T03:43:19.577Z,0
2016-09-19T03:44:19.566Z,0
2016-09-19T03:45:19.575Z,0
2016-09-19T03:46:19.547Z,0
2016-09-19T03:47:19.590Z,0
2016-09-19T03:48:19.624Z,0
2016-09-19T03:49:19.640Z,0
2016-09-19T03:50:19.609Z,0
2016-09-19T03:51:19.572Z,0
2016-09-19T03:52:19.596Z,0
2016-09-19T03:53:19.596Z,0
2016-09-19T03:54:19.615Z,0
2016-09-19T03:55:19.629Z,0
2016-09-19T03:56:19.578Z,0
2016-09-19T03:57:19.613Z,0
2016-09-19T03:58:19.590Z,0
2016-09-19T03:59:19.589Z,0
2016-09-19T04:00:19.603Z,0
2016-09-19T04:01:19.566Z,0
2016-09-19T04:02:19.613Z,0
2016-09-19T04:03:19.581Z,0
2016-09-19T04:04:19.600Z,0
2016-09-19T04:05:19.623Z,0
2016-09-19T04:06:19.630Z,0
2016-09-19T04:07:19.634Z,0
2016-09-19T04:08:19.632Z,0
2016-09-19T04:09:20.676Z,0
2016-09-19T04:10:19.589Z,0
2016-09-19T04:11:19.603Z,0
2016-09-19T04:12:19.596Z,0
2016-09-19T04:13:19.607Z,0
2016-09-19T04:14:19.609Z,0
2016-09-19T04:15:20.592Z,0
2016-09-19T04:16:29.147Z,0
2016-09-19T04:17:20.883Z,0
2016-09-19T04:18:30.370Z,0
2016-09-19T04:19:19.659Z,0
2016-09-19T04:20:29.248Z,0
2016-09-19T04:21:32.411Z,0
2016-09-19T04:22:32.246Z,0
2016-09-19T04:23:32.183Z,0
2016-09-19T04:24:32.886Z,0
2016-09-19T04:25:32.001Z,0
2016-09-19T04:26:32.751Z,0
2016-09-19T04:27:32.988Z,0
2016-09-19T04:28:32.954Z,0
2016-09-19T04:29:32.003Z,0
2016-09-19T04:30:32.408Z,0
2016-09-19T04:31:32.941Z,0
2016-09-19T04:32:33.523Z,0
2016-09-19T04:33:33.199Z,0
2016-09-19T04:34:33.024Z,0
2016-09-19T04:35:32.742Z,0
2016-09-19T04:36:23.945Z,0
2016-09-19T04:37:31.505Z,0
2016-09-19T04:38:31.994Z,0
2016-09-19T04:39:31.130Z,0
2016-09-19T04:40:32.766Z,0
2016-09-19T04:41:33.018Z,0
2016-09-19T04:42:29.297Z,0
2016-09-19T04:43:19.624Z,0
2016-09-19T04:44:19.633Z,0
2016-09-19T04:45:19.670Z,0
2016-09-19T04:46:19.619Z,0
2016-09-19T04:47:19.697Z,0
2016-09-19T04:48:19.676Z,0
2016-09-19T04:49:19.692Z,0
2016-09-19T04:50:19.651Z,0
2016-09-19T04:51:19.679Z,0
2016-09-19T04:52:19.701Z,0
2016-09-19T04:53:19.691Z,0
2016-09-19T04:54:19.664Z,0
2016-09-19T04:55:19.689Z,0
2016-09-19T04:56:19.869Z,0
2016-09-19T04:57:19.704Z,0
2016-09-19T04:58:19.716Z,0
2016-09-19T04:59:19.688Z,0
2016-09-19T05:00:19.663Z,0
2016-09-19T05:01:19.718Z,0
2016-09-19T05:02:19.721Z,0
2016-09-19T05:03:19.699Z,0
2016-09-19T05:04:19.707Z,0
2016-09-19T05:05:19.670Z,0
2016-09-19T05:06:19.683Z,0
2016-09-19T05:07:19.683Z,0
2016-09-19T05:08:19.757Z,0
2016-09-19T05:09:19.718Z,0
2016-09-19T05:10:19.711Z,0
2016-09-19T05:11:20.017Z,0
2016-09-19T05:12:19.745Z,0
2016-09-19T05:13:19.727Z,0
2016-09-19T05:14:19.679Z,0
2016-09-19T05:15:19.734Z,0
2016-09-19T05:16:19.696Z,0
2016-09-19T05:17:19.706Z,0
2016-09-19T05:18:19.686Z,0
2016-09-19T05:19:19.660Z,0
2016-09-19T05:20:19.684Z,0
2016-09-19T05:21:19.759Z,5
2016-09-19T05:22:19.699Z,5
2016-09-19T05:23:19.708Z,5
2016-09-19T05:24:20.204Z,5
2016-09-19T05:25:19.689Z,5
2016-09-19T05:26:19.689Z,5
2016-09-19T05:27:19.670Z,5
2016-09-19T05:28:19.693Z,5
2016-09-19T05:29:19.681Z,5
2016-09-19T05:30:19.743Z,10
2016-09-19T05:31:19.661Z,10
2016-09-19T05:32:19.741Z,10
2016-09-19T05:33:19.721Z,10
2016-09-19T05:34:19.711Z,10
2016-09-19T05:35:19.665Z,15
2016-09-19T05:36:19.759Z,15
2016-09-19T05:37:20.649Z,15
2016-09-19T05:38:19.737Z,15
2016-09-19T05:39:19.733Z,20
2016-09-19T05:40:19.730Z,20
2016-09-19T05:41:19.731Z,20
2016-09-19T05:42:19.692Z,25
2016-09-19T05:43:19.722Z,25
2016-09-19T05:44:19.707Z,25
2016-09-19T05:45:19.716Z,30
2016-09-19T05:46:19.707Z,30
2016-09-19T05:47:19.743Z,30
2016-09-19T05:48:19.721Z,30
2016-09-19T05:49:19.743Z,35
2016-09-19T05:50:19.716Z,35
2016-09-19T05:51:19.699Z,35
2016-09-19T05:52:19.733Z,40
2016-09-19T05:53:19.691Z,40
2016-09-19T05:54:19.748Z,40
2016-09-19T05:55:19.679Z,40
2016-09-19T05:56:19.742Z,45
2016-09-19T05:57:19.737Z,45
2016-09-19T05:58:19.785Z,45
2016-09-19T05:59:19.706Z,45
2016-09-19T06:00:19.755Z,45
2016-09-19T06:01:19.782Z,45
2016-09-19T06:02:19.725Z,45
2016-09-19T06:03:19.733Z,50
2016-09-19T06:04:19.753Z,50
2016-09-19T06:05:19.694Z,55
2016-09-19T06:06:19.746Z,60
2016-09-19T06:07:19.776Z,65
2016-09-19T06:08:19.731Z,65
2016-09-19T06:09:19.712Z,70
2016-09-19T06:10:19.734Z,75
2016-09-19T06:11:19.725Z,80
2016-09-19T06:12:19.774Z,90
2016-09-19T06:13:19.783Z,90
2016-09-19T06:14:19.872Z,95
2016-09-19T06:15:19.848Z,95
2016-09-19T06:16:19.784Z,100
2016-09-19T06:17:19.861Z,100
2016-09-19T06:18:19.865Z,100
2016-09-19T06:19:19.823Z,100
2016-09-19T06:20:19.818Z,90
2016-09-19T06:21:19.756Z,85
2016-09-19T06:22:19.758Z,80
2016-09-19T06:23:19.769Z,80
2016-09-19T06:24:19.820Z,80
2016-09-19T06:25:19.842Z,80
2016-09-19T06:26:19.773Z,80
2016-09-19T06:27:19.759Z,80
2016-09-19T06:28:19.754Z,80
2016-09-19T06:29:19.730Z,80
2016-09-19T06:30:19.720Z,80
2016-09-19T06:31:19.742Z,85
2016-09-19T06:32:19.717Z,85
2016-09-19T06:33:19.788Z,85
2016-09-19T06:34:19.727Z,85
2016-09-19T06:35:19.742Z,85
2016-09-19T06:36:19.746Z,85
2016-09-19T06:37:19.764Z,85
2016-09-19T06:38:19.786Z,85
2016-09-19T06:39:19.767Z,85
2016-09-19T06:40:19.762Z,90
2016-09-19T06:41:19.766Z,90
2016-09-19T06:42:19.759Z,90
2016-09-19T06:43:19.760Z,90
2016-09-19T06:44:19.769Z,90
2016-09-19T06:45:19.769Z,90
2016-09-19T06:46:19.734Z,90
2016-09-19T06:47:19.794Z,90
2016-09-19T06:48:19.755Z,95
2016-09-19T06:49:19.717Z,95
2016-09-19T06:50:19.756Z,95
2016-09-19T06:51:19.770Z,95
2016-09-19T06:52:19.785Z,95
2016-09-19T06:53:19.846Z,95
2016-09-19T06:54:19.775Z,95
2016-09-19T06:55:19.750Z,95
2016-09-19T06:56:19.779Z,95
2016-09-19T06:57:20.810Z,100
2016-09-19T06:58:19.758Z,100
2016-09-19T06:59:19.746Z,100
2016-09-19T07:00:19.760Z,100
2016-09-19T07:01:19.790Z,100
2016-09-19T07:02:19.757Z,100
2016-09-19T07:03:19.726Z,100
2016-09-19T07:04:19.775Z,100
2016-09-19T07:05:19.777Z,100
2016-09-19T07:06:19.778Z,100
2016-09-19T07:07:19.770Z,100
2016-09-19T07:08:19.777Z,95
2016-09-19T07:09:19.784Z,95
2016-09-19T07:10:19.764Z,100
2016-09-19T07:11:19.752Z,100
2016-09-19T07:12:19.772Z,100
2016-09-19T07:13:19.774Z,100
2016-09-19T07:14:19.751Z,100
2016-09-19T07:15:19.790Z,100
2016-09-19T07:16:19.824Z,100
2016-09-19T07:17:19.776Z,100
2016-09-19T07:18:19.759Z,100
2016-09-19T07:19:19.788Z,100
2016-09-19T07:20:19.799Z,100
2016-09-19T07:21:19.795Z,100
2016-09-19T07:22:19.803Z,100
2016-09-19T07:23:19.758Z,100
2016-09-19T07:24:19.956Z,100
2016-09-19T07:25:19.906Z,100
2016-09-19T07:26:19.897Z,100
2016-09-19T07:27:29.329Z,100
2016-09-19T07:28:31.783Z,100
2016-09-19T07:29:19.930Z,105
2016-09-19T07:30:19.921Z,105
2016-09-19T07:31:19.981Z,105
2016-09-19T07:32:19.867Z,105
2016-09-19T07:33:19.970Z,105
2016-09-19T07:34:19.934Z,105
2016-09-19T07:35:19.887Z,105
2016-09-19T07:36:19.906Z,105
2016-09-19T07:37:19.937Z,105
2016-09-19T07:38:19.888Z,105
2016-09-19T07:39:19.874Z,105
2016-09-19T07:40:19.929Z,105
2016-09-19T07:41:19.923Z,110
2016-09-19T07:42:19.971Z,120
2016-09-19T07:43:19.962Z,150
2016-09-19T07:44:19.948Z,175
2016-09-19T07:45:19.821Z,200
2016-09-19T07:46:19.928Z,215
2016-09-19T07:47:19.883Z,210
2016-09-19T07:48:19.908Z,190
2016-09-19T07:49:20.073Z,180
2016-09-19T07:50:19.891Z,165
2016-09-19T07:51:19.941Z,150
2016-09-19T07:52:19.823Z,135
2016-09-19T07:53:19.788Z,120
2016-09-19T07:54:19.825Z,115
2016-09-19T07:55:19.834Z,120
2016-09-19T07:56:19.897Z,120
2016-09-19T07:57:19.803Z,120
2016-09-19T07:58:19.823Z,125
2016-09-19T07:59:19.801Z,125
2016-09-19T08:00:19.832Z,125
2016-09-19T08:01:19.855Z,130
2016-09-19T08:02:19.888Z,135
2016-09-19T08:03:19.839Z,140
2016-09-19T08:04:19.840Z,140
2016-09-19T08:05:19.852Z,140
2016-09-19T08:06:19.872Z,150
2016-09-19T08:07:19.830Z,155
2016-09-19T08:08:19.830Z,160
2016-09-19T08:09:19.821Z,175
2016-09-19T08:10:19.865Z,190
2016-09-19T08:11:19.866Z,205
2016-09-19T08:12:19.813Z,205
2016-09-19T08:13:19.805Z,200
2016-09-19T08:14:19.813Z,190
2016-09-19T08:15:19.836Z,190
2016-09-19T08:16:19.835Z,205
2016-09-19T08:17:19.842Z,210
2016-09-19T08:18:19.843Z,220
2016-09-19T08:19:19.838Z,240
2016-09-19T08:20:19.850Z,260
2016-09-19T08:21:19.936Z,260
2016-09-19T08:22:19.845Z,250
2016-09-19T08:23:19.881Z,250
2016-09-19T08:24:19.824Z,245
2016-09-19T08:25:19.859Z,250
2016-09-19T08:26:19.849Z,255
2016-09-19T08:27:19.826Z,255
2016-09-19T08:28:19.877Z,245
2016-09-19T08:29:19.897Z,235
2016-09-19T08:30:19.853Z,230
2016-09-19T08:31:19.871Z,215
2016-09-19T08:32:19.859Z,210
2016-09-19T08:33:19.897Z,220
2016-09-19T08:34:19.853Z,240
2016-09-19T08:35:19.844Z,235
2016-09-19T08:36:19.852Z,240
2016-09-19T08:37:19.875Z,250
2016-09-19T08:38:19.813Z,265
2016-09-19T08:39:19.843Z,265
2016-09-19T08:40:19.849Z,260
2016-09-19T08:41:19.861Z,260
2016-09-19T08:42:19.872Z,265
2016-09-19T08:43:19.896Z,275
2016-09-19T08:44:19.833Z,280
2016-09-19T08:45:19.850Z,285
2016-09-19T08:46:19.949Z,285
2016-09-19T08:47:19.901Z,280
2016-09-19T08:48:19.872Z,280
2016-09-19T08:49:19.993Z,275
2016-09-19T08:50:20.101Z,260
2016-09-19T08:51:20.112Z,255
2016-09-19T08:52:19.897Z,255
2016-09-19T08:53:19.999Z,250
2016-09-19T08:54:20.156Z,245
2016-09-19T08:55:20.034Z,245
2016-09-19T08:56:20.402Z,250
2016-09-19T08:57:20.000Z,250
2016-09-19T08:58:20.050Z,240
2016-09-19T08:59:19.859Z,225
2016-09-19T09:00:19.887Z,225
2016-09-19T09:01:20.067Z,215
2016-09-19T09:02:19.875Z,205
2016-09-19T09:03:19.882Z,220
2016-09-19T09:04:19.882Z,230
2016-09-19T09:05:20.620Z,225
2016-09-19T09:06:20.022Z,220
2016-09-19T09:07:19.878Z,210
2016-09-19T09:08:19.972Z,215
2016-09-19T09:09:19.932Z,210
2016-09-19T09:10:19.916Z,200
2016-09-19T09:11:19.929Z,200
2016-09-19T09:12:19.929Z,195
2016-09-19T09:13:19.897Z,205
2016-09-19T09:14:19.913Z,210
2016-09-19T09:15:19.983Z,210
2016-09-19T09:16:19.957Z,190
2016-09-19T09:17:19.934Z,195
2016-09-19T09:18:19.924Z,195
2016-09-19T09:19:19.930Z,185
2016-09-19T09:20:19.918Z,165
2016-09-19T09:21:19.926Z,150
2016-09-19T09:22:19.932Z,155
2016-09-19T09:23:19.938Z,140
2016-09-19T09:24:19.892Z,130
2016-09-19T09:25:19.920Z,130
2016-09-19T09:26:19.875Z,130
2016-09-19T09:27:19.936Z,130
2016-09-19T09:28:19.943Z,130
2016-09-19T09:29:19.902Z,120
2016-09-19T09:30:19.918Z,130
2016-09-19T09:31:19.937Z,125
2016-09-19T09:32:19.956Z,125
2016-09-19T09:33:19.912Z,125
2016-09-19T09:34:19.911Z,125
2016-09-19T09:35:19.888Z,120
2016-09-19T09:36:19.925Z,125
2016-09-19T09:37:20.042Z,120
2016-09-19T09:38:19.931Z,125
2016-09-19T09:39:19.921Z,125
2016-09-19T09:40:19.896Z,120
2016-09-19T09:41:19.952Z,120
2016-09-19T09:42:19.920Z,125
2016-09-19T09:43:19.922Z,125
2016-09-19T09:44:19.932Z,125
2016-09-19T09:45:19.924Z,120
2016-09-19T09:46:19.889Z,125
2016-09-19T09:47:19.913Z,125
2016-09-19T09:48:19.939Z,125
2016-09-19T09:49:19.915Z,125
2016-09-19T09:50:19.956Z,125
2016-09-19T09:51:19.982Z,125
2016-09-19T09:52:19.967Z,125
2016-09-19T09:53:19.974Z,130
2016-09-19T09:54:19.937Z,125
2016-09-19T09:55:19.960Z,125
2016-09-19T09:56:19.964Z,125
2016-09-19T09:57:19.961Z,125
2016-09-19T09:58:19.920Z,125
2016-09-19T09:59:19.912Z,125
2016-09-19T10:00:19.918Z,125
2016-09-19T10:01:19.957Z,125
2016-09-19T10:02:19.982Z,125
2016-09-19T10:03:19.998Z,125
2016-09-19T10:04:19.945Z,125
2016-09-19T10:05:19.912Z,125
2016-09-19T10:06:19.933Z,125
2016-09-19T10:07:19.956Z,125
2016-09-19T10:08:19.910Z,125
2016-09-19T10:09:19.936Z,130
2016-09-19T10:10:19.938Z,130
2016-09-19T10:11:19.981Z,135
2016-09-19T10:12:19.981Z,135
2016-09-19T10:13:19.979Z,140
2016-09-19T10:14:19.981Z,145
2016-09-19T10:15:19.985Z,145
2016-09-19T10:16:19.990Z,150
2016-09-19T10:17:20.061Z,155
2016-09-19T10:18:19.944Z,160
2016-09-19T10:19:19.980Z,165
2016-09-19T10:20:19.941Z,170
2016-09-19T10:21:19.985Z,180
2016-09-19T10:22:19.964Z,190
2016-09-19T10:23:19.939Z,200
2016-09-19T10:24:19.948Z,205
2016-09-19T10:25:19.961Z,220
2016-09-19T10:26:19.954Z,225
2016-09-19T10:27:19.920Z,220
2016-09-19T10:28:19.942Z,210
2016-09-19T10:29:19.961Z,200
2016-09-19T10:30:19.970Z,200
2016-09-19T10:31:19.987Z,205
2016-09-19T10:32:19.939Z,205
2016-09-19T10:33:19.961Z,210
2016-09-19T10:34:19.936Z,225
2016-09-19T10:35:19.944Z,245
2016-09-19T10:36:19.941Z,260
2016-09-19T10:37:20.031Z,265
2016-09-19T10:38:20.005Z,265
2016-09-19T10:39:19.970Z,260
2016-09-19T10:40:19.947Z,260
2016-09-19T10:41:19.973Z,255
2016-09-19T10:42:19.932Z,245
2016-09-19T10:43:20.012Z,250
2016-09-19T10:44:19.955Z,255
2016-09-19T10:45:19.994Z,280
2016-09-19T10:46:19.927Z,290
2016-09-19T10:47:19.925Z,270
2016-09-19T10:48:19.952Z,245
2016-09-19T10:49:19.948Z,225
2016-09-19T10:50:19.981Z,235
2016-09-19T10:51:19.980Z,235
2016-09-19T10:52:19.985Z,230
2016-09-19T10:53:19.989Z,225
2016-09-19T10:54:19.999Z,220
2016-09-19T10:55:20.003Z,215
2016-09-19T10:56:20.003Z,205
2016-09-19T10:57:19.982Z,200
2016-09-19T10:58:20.004Z,205
2016-09-19T10:59:20.011Z,205
2016-09-19T11:00:20.084Z,220
2016-09-19T11:01:19.986Z,205
2016-09-19T11:02:20.021Z,190
2016-09-19T11:04:20.007Z,185
2016-09-19T11:05:20.027Z,170
2016-09-19T11:06:20.044Z,170
2016-09-19T11:07:20.027Z,165
2016-09-19T11:08:20.019Z,165
2016-09-19T11:09:19.997Z,165
2016-09-19T11:10:20.026Z,165
2016-09-19T11:11:20.045Z,175
2016-09-19T11:12:19.997Z,185
2016-09-19T11:13:20.009Z,180
2016-09-19T11:14:20.008Z,180
2016-09-19T11:15:19.989Z,180
2016-09-19T11:16:20.034Z,180
2016-09-19T11:17:20.056Z,185
2016-09-19T11:19:20.026Z,185
2016-09-19T11:20:19.990Z,185
2016-09-19T11:21:20.026Z,180
2016-09-19T11:22:20.003Z,190
2016-09-19T11:23:20.047Z,190
2016-09-19T11:24:20.046Z,190
2016-09-19T11:25:19.991Z,195
2016-09-19T11:26:20.035Z,200
2016-09-19T11:27:20.018Z,205
2016-09-19T11:28:20.019Z,205
2016-09-19T11:29:19.988Z,205
2016-09-19T11:30:20.027Z,205
2016-09-19T11:31:20.028Z,210
2016-09-19T11:32:20.021Z,215
2016-09-19T11:33:20.025Z,220
2016-09-19T11:34:20.044Z,225
2016-09-19T11:35:20.002Z,230
2016-09-19T11:36:20.065Z,230
2016-09-19T11:37:20.057Z,225
2016-09-19T11:38:20.023Z,220
2016-09-19T11:39:20.084Z,210
2016-09-19T11:40:20.233Z,220
2016-09-19T11:41:20.034Z,215
2016-09-19T11:42:20.025Z,210
2016-09-19T11:43:19.991Z,205
2016-09-19T11:44:20.045Z,215
2016-09-19T11:45:20.057Z,210
2016-09-19T11:46:20.025Z,205
2016-09-19T11:47:20.038Z,205
2016-09-19T11:48:20.036Z,215
2016-09-19T11:49:20.028Z,220
2016-09-19T11:50:20.060Z,220
2016-09-19T11:51:20.118Z,220
2016-09-19T11:52:20.053Z,220
2016-09-19T11:53:20.040Z,215
2016-09-19T11:54:20.059Z,225
2016-09-19T11:55:20.026Z,230
2016-09-19T11:56:20.054Z,230
2016-09-19T11:57:20.016Z,225
2016-09-19T11:58:20.055Z,230
2016-09-19T11:59:20.054Z,225
2016-09-19T12:00:20.060Z,230
2016-09-19T12:01:20.074Z,240
2016-09-19T12:02:20.041Z,255
2016-09-19T12:03:20.075Z,260
2016-09-19T12:04:20.042Z,265
2016-09-19T12:05:20.074Z,280
2016-09-19T12:06:20.096Z,275
2016-09-19T12:07:20.073Z,275
2016-09-19T12:08:20.052Z,285
2016-09-19T12:09:20.102Z,290
2016-09-19T12:10:20.056Z,285
2016-09-19T12:11:20.102Z,275
2016-09-19T12:12:20.198Z,270
2016-09-19T12:13:20.096Z,265
2016-09-19T12:14:20.080Z,260
2016-09-19T12:15:20.694Z,265
2016-09-19T12:16:20.908Z,270
2016-09-19T12:17:20.069Z,275
2016-09-19T12:18:20.112Z,280
2016-09-19T12:19:20.073Z,290
2016-09-19T12:20:20.104Z,295
2016-09-19T12:21:20.110Z,305
2016-09-19T12:22:20.116Z,320
2016-09-19T12:23:20.051Z,310
2016-09-19T12:24:20.394Z,315
2016-09-19T12:25:20.151Z,325
2016-09-19T12:26:20.183Z,325
2016-09-19T12:27:20.134Z,315
2016-09-19T12:28:20.214Z,300
2016-09-19T12:29:20.209Z,285
2016-09-19T12:30:20.122Z,290
2016-09-19T12:31:20.090Z,260
2016-09-19T12:32:20.106Z,250
2016-09-19T12:33:20.141Z,240
2016-09-19T12:34:20.075Z,230
2016-09-19T12:35:20.189Z,225
2016-09-19T12:36:20.071Z,220
2016-09-19T12:37:20.094Z,215
2016-09-19T12:38:20.071Z,210
2016-09-19T12:39:20.107Z,205
2016-09-19T12:40:20.115Z,205
2016-09-19T12:41:20.160Z,205
2016-09-19T12:42:20.143Z,210
2016-09-19T12:43:20.128Z,215
2016-09-19T12:44:20.161Z,220
2016-09-19T12:45:20.195Z,230
2016-09-19T12:46:20.196Z,225
2016-09-19T12:47:20.131Z,220
2016-09-19T12:48:20.170Z,210
2016-09-19T12:49:20.148Z,210
2016-09-19T12:50:20.110Z,210
2016-09-19T12:51:20.132Z,210
2016-09-19T12:52:20.114Z,200
2016-09-19T12:53:20.173Z,195
2016-09-19T12:54:20.141Z,195
2016-09-19T12:55:20.122Z,195
2016-09-19T12:56:20.153Z,195
2016-09-19T12:57:20.142Z,205
2016-09-19T12:58:20.173Z,205
2016-09-19T12:59:20.149Z,200
2016-09-19T13:00:20.186Z,200
2016-09-19T13:01:20.208Z,200
2016-09-19T13:02:20.751Z,205
2016-09-19T13:03:20.145Z,215
2016-09-19T13:04:20.120Z,215
2016-09-19T13:05:20.714Z,220
2016-09-19T13:06:20.173Z,230
2016-09-19T13:07:20.150Z,220
2016-09-19T13:08:20.198Z,220
2016-09-19T13:09:20.157Z,215
2016-09-19T13:10:20.193Z,220
2016-09-19T13:11:20.173Z,230
2016-09-19T13:12:20.224Z,245
2016-09-19T13:13:20.137Z,255
2016-09-19T13:14:20.182Z,270
2016-09-19T13:15:20.132Z,275
2016-09-19T13:16:20.224Z,280
2016-09-19T13:17:20.225Z,280
2016-09-19T13:18:20.244Z,280
2016-09-19T13:19:20.279Z,275
2016-09-19T13:20:20.235Z,275
2016-09-19T13:21:20.160Z,280
2016-09-19T13:22:20.160Z,280
2016-09-19T13:23:20.227Z,280
2016-09-19T13:24:20.240Z,275
2016-09-19T13:25:20.176Z,270
2016-09-19T13:26:20.199Z,260
2016-09-19T13:27:20.236Z,255
2016-09-19T13:28:20.143Z,255
2016-09-19T13:29:20.171Z,260
2016-09-19T13:30:20.237Z,265
2016-09-19T13:31:20.213Z,265
2016-09-19T13:32:20.212Z,265
2016-09-19T13:33:20.152Z,270
2016-09-19T13:34:20.207Z,275
2016-09-19T13:35:20.220Z,275
2016-09-19T13:36:20.181Z,275
2016-09-19T13:37:20.192Z,280
2016-09-19T13:38:20.157Z,275
2016-09-19T13:39:20.176Z,275
2016-09-19T13:40:20.153Z,275
2016-09-19T13:41:20.144Z,270
2016-09-19T13:42:20.172Z,270
2016-09-19T13:43:20.127Z,270
2016-09-19T13:44:20.150Z,265
2016-09-19T13:45:20.169Z,265
2016-09-19T13:46:20.253Z,260
2016-09-19T13:47:20.169Z,260
2016-09-19T13:48:20.175Z,260
2016-09-19T13:49:20.125Z,260
2016-09-19T13:50:20.135Z,255
2016-09-19T13:51:20.137Z,255
2016-09-19T13:52:20.170Z,255
2016-09-19T13:53:20.204Z,250
2016-09-19T13:54:20.146Z,250
2016-09-19T13:55:20.181Z,245
2016-09-19T13:56:20.177Z,240
2016-09-19T13:57:20.192Z,235
2016-09-19T13:58:20.869Z,235
2016-09-19T13:59:20.236Z,240
2016-09-19T14:00:20.196Z,240
2016-09-19T14:01:20.201Z,240
2016-09-19T14:02:20.192Z,240
2016-09-19T14:03:20.310Z,235
2016-09-19T14:04:20.231Z,230
2016-09-19T14:05:20.211Z,230
2016-09-19T14:06:20.241Z,230
2016-09-19T14:07:20.153Z,230
2016-09-19T14:08:20.167Z,230
2016-09-19T14:09:20.153Z,230
2016-09-19T14:10:20.264Z,230
2016-09-19T14:11:20.201Z,230
2016-09-19T14:12:20.192Z,235
2016-09-19T14:13:20.200Z,235